Hauptseite
METAR-TAF:

METAR-TAF

Flughäfen :

Bagdad, Irak

Flughafen Bagdad

Breite: 33-15-45N, Länge: 44-14-04E, Höhe: 35 m

Beobachtung

Neuester Wetterbericht von vor 47 Minuten, um 15:00 UTC
Wind 10 kt aus Nord/Nordwest
Temperatur 46°C
Luftfeuchtigkeit 11%
Luftdruck 999 hPa
Sichtweite 10 km oder mehr
keine Wolken unter 1500 m und keine Kumulonimbus oder Gewitterwolken

METAR: ORBI 271500Z 33010KT CAVOK 46/08 Q0999 NOSIG

Zeit: 18:47 (15:47 UTC)

Prognose

Neuester Wetterbericht von vor 5 Stunden und 47 Minuten, um 10:00 UTC
Gültige Prognose vom 27 um 12 UTC bis 28 um 12 UTC
Wind 14 kt aus Nordwest
Sichtweite 10 km oder mehr
keine Wolken unter 1500 m und keine Kumulonimbus oder Gewitterwolken

TAF: ORBI 271000Z 2712/2812 32014KT CAVOK

Wetterbeobachtungen und Prognosen von mehr als 4000 Flughäfen (METAR und TAF Bericht).

Die verfügbaren Stationen werden durch gelbe und rote Markierungen auf der Karte dargestellt.

Führen Sie die Maus auf sie, um den Namen der Station zu sehen.

Darauf klicken, um die Beobachtung von Wetterbeobachtungen und Prognosen zu sehen.

Um die Karte zu ändern : klicken Sie auf den grünen Tasten mit einem schwarzen Kreuz Zum Vergrößern, auf den grünen Button mit einem Gedankenstrich zu verkleinern, oder auf die grünen Pfeile für benachbarte Karten.


METAR-TAF: